createdAt,value
2022-10-06T00:09:09.390Z,99.90
2022-10-06T00:19:11.156Z,99.90
2022-10-06T00:29:18.360Z,99.90
2022-10-06T00:39:20.230Z,99.90
2022-10-06T00:49:32.336Z,99.90
2022-10-06T00:59:36.671Z,99.90
2022-10-06T01:09:39.396Z,99.90
2022-10-06T01:19:52.586Z,99.90
2022-10-06T01:29:56.159Z,99.90
2022-10-06T01:39:58.074Z,99.90
2022-10-06T01:50:00.339Z,99.90
2022-10-06T02:00:04.488Z,99.90
2022-10-06T02:10:14.600Z,99.90
2022-10-06T02:20:17.210Z,99.90
2022-10-06T02:30:20.405Z,99.90
2022-10-06T02:40:22.475Z,99.90
2022-10-06T02:50:25.604Z,99.90
2022-10-06T03:00:27.585Z,99.90
2022-10-06T03:10:29.627Z,99.90
2022-10-06T03:20:31.616Z,99.90
2022-10-06T03:30:33.663Z,99.90
2022-10-06T03:40:35.598Z,99.90
2022-10-06T03:50:37.922Z,99.90
2022-10-06T04:00:39.853Z,99.90
2022-10-06T04:10:41.737Z,99.90
2022-10-06T04:20:43.681Z,99.90
2022-10-06T04:30:56.270Z,99.90
2022-10-06T04:41:14.596Z,99.90
2022-10-06T04:51:17.869Z,99.90
2022-10-06T05:01:26.800Z,99.90
2022-10-06T05:11:29.881Z,99.90
2022-10-06T05:21:32.952Z,99.90
2022-10-06T05:31:36.725Z,99.90
2022-10-06T05:41:39.598Z,99.90
2022-10-06T05:51:44.256Z,99.90
2022-10-06T06:01:51.347Z,99.90
2022-10-06T06:12:01.909Z,99.90
2022-10-06T06:22:32.957Z,99.90
2022-10-06T06:32:40.287Z,99.90
2022-10-06T06:42:43.273Z,99.90
2022-10-06T06:52:57.051Z,99.90
2022-10-06T07:02:59.531Z,99.90
2022-10-06T07:13:05.752Z,99.90
2022-10-06T07:23:21.817Z,99.90
2022-10-06T07:33:23.897Z,99.90
2022-10-06T07:43:27.720Z,98.30
2022-10-06T07:53:30.728Z,97.90
2022-10-06T08:03:41.688Z,98.10
2022-10-06T08:13:46.739Z,98.40
2022-10-06T08:23:50.767Z,97.00
2022-10-06T08:33:59.117Z,95.80
2022-10-06T08:44:13.674Z,95.70
2022-10-06T08:54:41.780Z,95.10
2022-10-06T09:04:43.889Z,93.60
2022-10-06T09:26:22.877Z,93.20
2022-10-06T09:36:57.682Z,92.60
2022-10-06T09:47:20.312Z,92.60
2022-10-06T09:57:29.319Z,93.00
2022-10-06T10:07:31.458Z,93.10
2022-10-06T10:17:48.710Z,92.30
2022-10-06T10:28:15.874Z,92.20
2022-10-06T10:38:23.183Z,92.50
2022-10-06T10:48:32.520Z,92.50
2022-10-06T10:58:36.993Z,92.20
2022-10-06T11:20:40.117Z,93.70
2022-10-06T11:31:09.737Z,92.70
2022-10-06T11:41:47.718Z,95.20
2022-10-06T12:59:46.612Z,95.60
2022-10-06T13:09:51.281Z,95.80
2022-10-06T13:19:53.297Z,96.80
2022-10-06T13:30:25.771Z,96.10
2022-10-06T13:40:44.197Z,97.30
2022-10-06T13:50:48.779Z,98.00
2022-10-06T14:01:00.105Z,98.70
2022-10-06T14:11:08.433Z,98.70
2022-10-06T14:21:39.959Z,99.60
2022-10-06T14:31:49.097Z,99.90
2022-10-06T14:41:51.045Z,99.90
2022-10-06T14:51:54.265Z,99.90
2022-10-06T15:01:56.173Z,99.90
2022-10-06T15:11:59.158Z,99.90
2022-10-06T15:22:01.196Z,99.90
2022-10-06T15:32:05.159Z,99.90
2022-10-06T15:42:07.787Z,99.90
2022-10-06T15:52:12.226Z,99.90
2022-10-06T16:02:15.905Z,99.90
2022-10-06T16:12:25.786Z,99.90
2022-10-06T16:22:27.927Z,99.90
2022-10-06T16:32:30.068Z,99.90
2022-10-06T16:42:31.942Z,99.90
2022-10-06T16:52:33.947Z,99.90
2022-10-06T17:02:35.943Z,99.90
2022-10-06T17:12:38.357Z,99.90
2022-10-06T17:22:40.730Z,99.90
2022-10-06T17:32:43.276Z,99.90
2022-10-06T17:42:45.443Z,99.90
2022-10-06T17:53:04.189Z,99.90
2022-10-06T18:03:06.106Z,99.90
2022-10-06T18:13:07.958Z,99.90
2022-10-06T18:23:09.834Z,99.90
2022-10-06T18:43:34.459Z,99.90
2022-10-06T18:53:37.031Z,99.90
2022-10-06T19:04:01.686Z,99.90
2022-10-06T19:14:15.344Z,99.90
2022-10-06T19:24:19.836Z,99.90
2022-10-06T19:34:25.629Z,99.90
2022-10-06T19:55:02.645Z,99.90
2022-10-06T20:16:34.658Z,99.90
2022-10-06T20:26:39.871Z,99.90
2022-10-06T20:36:55.634Z,99.90
2022-10-06T20:47:32.185Z,99.90
2022-10-06T20:58:06.712Z,99.90
2022-10-06T21:08:14.147Z,99.90
2022-10-06T21:18:35.305Z,99.90
2022-10-06T21:28:38.807Z,99.90
2022-10-06T21:38:42.379Z,99.90
2022-10-06T22:00:09.679Z,99.90
2022-10-06T22:10:15.949Z,99.90
2022-10-06T22:20:18.074Z,99.90
2022-10-06T22:30:20.265Z,99.90
2022-10-06T22:40:23.312Z,99.90
2022-10-06T22:50:27.110Z,99.90
2022-10-06T23:00:29.154Z,99.90
2022-10-06T23:10:32.645Z,99.90
2022-10-06T23:20:34.840Z,99.90
2022-10-06T23:30:38.501Z,99.90
2022-10-06T23:40:41.324Z,99.90
2022-10-06T23:50:43.586Z,99.90
